createdAt,value
2023-05-01T00:01:26.011Z,76.94
2023-05-01T00:03:52.538Z,77.51
2023-05-01T00:06:19.306Z,77.93
2023-05-01T00:08:45.654Z,77.67
2023-05-01T00:11:12.594Z,77.45
2023-05-01T00:13:38.912Z,77.29
2023-05-01T00:16:12.029Z,77.45
2023-05-01T00:18:38.985Z,77.47
2023-05-01T00:21:05.528Z,77.57
2023-05-01T00:23:31.860Z,77.64
2023-05-01T00:25:58.215Z,77.53
2023-05-01T00:28:24.550Z,78.19
2023-05-01T00:30:51.226Z,78.23
2023-05-01T00:33:17.527Z,78.75
2023-05-01T00:35:44.971Z,78.83
2023-05-01T00:38:11.550Z,78.67
2023-05-01T00:40:44.851Z,78.85
2023-05-01T00:43:12.029Z,78.75
2023-05-01T00:45:38.906Z,78.78
2023-05-01T00:48:05.863Z,78.77
2023-05-01T00:50:33.260Z,78.64
2023-05-01T00:53:00.089Z,79.90
2023-05-01T00:55:26.626Z,79.38
2023-05-01T00:57:54.004Z,79.42
2023-05-01T01:00:22.420Z,78.95
2023-05-01T01:02:49.048Z,79.52
2023-05-01T01:05:16.190Z,79.53
2023-05-01T01:07:55.798Z,79.77
2023-05-01T01:10:37.018Z,80.13
2023-05-01T01:13:17.281Z,80.58
2023-05-01T01:15:55.575Z,80.29
2023-05-01T01:18:34.257Z,80.09
2023-05-01T01:21:06.954Z,81.07
2023-05-01T01:23:39.316Z,81.10
2023-05-01T01:26:12.237Z,80.63
2023-05-01T01:28:53.899Z,80.68
2023-05-01T01:31:26.640Z,80.78
2023-05-01T01:33:58.930Z,80.64
2023-05-01T01:36:33.418Z,80.67
2023-05-01T01:39:08.865Z,80.78
2023-05-01T01:41:36.818Z,80.71
2023-05-01T01:44:08.712Z,80.60
2023-05-01T01:46:37.285Z,80.89
2023-05-01T01:49:06.519Z,80.15
2023-05-01T01:51:34.319Z,80.10
2023-05-01T01:54:02.025Z,80.21
2023-05-01T01:56:29.441Z,80.11
2023-05-01T01:58:55.962Z,80.10
2023-05-01T02:01:23.167Z,80.13
2023-05-01T02:03:49.744Z,80.16
2023-05-01T02:06:17.564Z,79.96
2023-05-01T02:08:46.981Z,80.56
2023-05-01T02:11:14.586Z,80.76
2023-05-01T02:13:42.140Z,81.20
2023-05-01T02:16:08.989Z,81.00
2023-05-01T02:18:36.315Z,80.98
2023-05-01T02:21:03.427Z,81.13
2023-05-01T02:23:31.017Z,80.52
2023-05-01T02:25:58.451Z,80.95
2023-05-01T02:28:26.824Z,80.87
2023-05-01T02:30:53.166Z,80.85
2023-05-01T02:33:19.482Z,80.91
2023-05-01T02:35:47.516Z,79.89
2023-05-01T02:38:15.166Z,79.99
2023-05-01T02:40:44.354Z,79.55
2023-05-01T02:43:12.434Z,79.82
2023-05-01T02:45:40.278Z,79.55
2023-05-01T02:48:08.105Z,80.09
2023-05-01T02:50:34.682Z,80.02
2023-05-01T02:53:01.663Z,79.83
2023-05-01T02:55:28.121Z,79.80
2023-05-01T02:57:57.792Z,79.96
2023-05-01T03:00:24.129Z,79.75
2023-05-01T03:02:50.483Z,80.23
2023-05-01T03:05:17.190Z,80.44
2023-05-01T03:07:43.537Z,81.05
2023-05-01T03:10:11.152Z,80.96
2023-05-01T03:12:37.511Z,81.16
2023-05-01T03:15:04.244Z,81.43
2023-05-01T03:17:31.058Z,81.92
2023-05-01T03:19:57.734Z,81.81
2023-05-01T03:22:24.213Z,82.19
2023-05-01T03:24:50.997Z,82.25
2023-05-01T03:27:17.313Z,82.53
2023-05-01T03:29:43.675Z,82.33
2023-05-01T03:32:10.244Z,82.89
2023-05-01T03:34:36.607Z,83.04
2023-05-01T03:37:02.969Z,83.02
2023-05-01T03:39:29.325Z,83.64
2023-05-01T03:41:55.676Z,83.54
2023-05-01T03:44:22.343Z,83.13
2023-05-01T03:46:48.683Z,82.72
2023-05-01T03:49:14.997Z,82.91
2023-05-01T03:51:41.338Z,82.66
2023-05-01T03:54:07.975Z,82.77
2023-05-01T03:56:36.606Z,83.18
2023-05-01T03:59:02.989Z,83.10
2023-05-01T04:01:29.463Z,83.02
2023-05-01T04:03:55.906Z,82.82
2023-05-01T04:06:22.921Z,82.58
2023-05-01T04:08:49.338Z,82.69
2023-05-01T04:11:15.696Z,82.60
2023-05-01T04:13:42.151Z,82.53
2023-05-01T04:16:08.689Z,82.21
2023-05-01T04:18:35.121Z,82.06
2023-05-01T04:21:01.502Z,82.08
2023-05-01T04:23:27.909Z,82.07
2023-05-01T04:25:54.254Z,82.39
2023-05-01T04:28:20.598Z,82.28
2023-05-01T04:30:47.042Z,82.66
2023-05-01T04:33:13.371Z,83.02
2023-05-01T04:35:40.151Z,83.96
2023-05-01T04:38:07.003Z,84.37
2023-05-01T04:40:33.493Z,83.46
2023-05-01T04:42:59.974Z,83.59
2023-05-01T04:45:26.450Z,84.16
2023-05-01T04:47:52.770Z,84.10
2023-05-01T04:50:19.166Z,84.28
2023-05-01T04:52:46.042Z,84.64
2023-05-01T04:55:12.394Z,84.42
2023-05-01T04:57:38.716Z,83.89
2023-05-01T05:00:05.670Z,82.68
2023-05-01T05:02:32.192Z,82.22
2023-05-01T05:04:59.158Z,81.68
2023-05-01T05:07:25.561Z,81.53
2023-05-01T05:09:51.949Z,80.60
2023-05-01T05:12:18.278Z,79.72
2023-05-01T05:14:44.642Z,79.00
2023-05-01T05:17:10.972Z,78.70
2023-05-01T05:19:37.353Z,78.09
2023-05-01T05:22:04.170Z,75.53
2023-05-01T05:24:30.727Z,73.32
2023-05-01T05:26:57.142Z,70.85
2023-05-01T05:29:23.633Z,68.02
2023-05-01T05:31:50.007Z,66.40
2023-05-01T05:34:16.362Z,64.96
2023-05-01T05:36:43.099Z,63.80
2023-05-01T05:39:09.465Z,62.45
2023-05-01T05:41:35.837Z,61.36
2023-05-01T05:44:02.377Z,61.20
2023-05-01T05:46:28.819Z,59.42
2023-05-01T05:48:55.199Z,58.07
2023-05-01T05:51:21.630Z,57.36
2023-05-01T05:53:47.969Z,55.01
2023-05-01T05:56:14.305Z,53.20
2023-05-01T05:58:40.637Z,51.39
2023-05-01T06:01:07.184Z,49.58
2023-05-01T06:03:33.747Z,47.67
2023-05-01T06:06:00.544Z,46.16
2023-05-01T06:08:27.389Z,46.85
2023-05-01T06:10:54.362Z,47.27
2023-05-01T06:13:20.681Z,47.28
2023-05-01T06:15:47.224Z,48.63
2023-05-01T06:18:13.761Z,48.90
2023-05-01T06:20:40.269Z,48.33
2023-05-01T06:23:08.554Z,46.98
2023-05-01T06:25:34.959Z,45.99
2023-05-01T06:28:01.348Z,44.90
2023-05-01T06:30:27.939Z,44.65
2023-05-01T06:32:54.317Z,43.72
2023-05-01T06:35:21.122Z,42.97
2023-05-01T06:37:47.537Z,42.99
2023-05-01T06:40:14.034Z,44.00
2023-05-01T06:42:40.519Z,44.55
2023-05-01T06:45:07.686Z,45.09
2023-05-01T06:47:34.267Z,45.10
2023-05-01T06:50:02.844Z,45.21
2023-05-01T06:52:30.230Z,45.16
2023-05-01T06:54:56.658Z,44.79
2023-05-01T06:57:23.028Z,43.57
2023-05-01T06:59:49.388Z,44.11
2023-05-01T07:02:15.837Z,43.70
2023-05-01T07:04:44.411Z,44.09
2023-05-01T07:07:10.801Z,43.53
2023-05-01T07:09:37.388Z,42.81
2023-05-01T07:12:03.961Z,42.22
2023-05-01T07:14:30.287Z,42.77
2023-05-01T07:16:56.766Z,42.51
2023-05-01T07:19:23.261Z,41.45
2023-05-01T07:21:49.601Z,42.17
2023-05-01T07:24:16.859Z,42.49
2023-05-01T07:26:43.190Z,43.20
2023-05-01T07:29:09.583Z,41.77
2023-05-01T07:31:36.364Z,42.07
2023-05-01T07:34:02.710Z,41.95
2023-05-01T07:36:29.480Z,42.63
2023-05-01T07:38:56.716Z,41.88
2023-05-01T07:41:25.102Z,42.83
2023-05-01T07:43:51.511Z,43.35
2023-05-01T07:46:18.241Z,41.75
2023-05-01T07:48:45.063Z,41.43
2023-05-01T07:51:11.861Z,42.64
2023-05-01T07:53:40.685Z,42.58
2023-05-01T07:56:08.945Z,43.09
2023-05-01T07:58:41.015Z,42.86
2023-05-01T08:01:07.389Z,42.95
2023-05-01T08:03:33.878Z,43.20
2023-05-01T08:06:00.567Z,43.84
2023-05-01T08:08:26.996Z,43.61
2023-05-01T08:10:53.442Z,42.70
2023-05-01T08:13:19.831Z,41.77
2023-05-01T08:15:47.305Z,43.58
2023-05-01T08:18:19.654Z,42.06
2023-05-01T08:20:47.644Z,42.29
2023-05-01T08:23:17.269Z,42.46
2023-05-01T08:25:46.701Z,41.99
2023-05-01T08:28:16.199Z,41.11
2023-05-01T08:30:42.594Z,40.74
2023-05-01T08:33:08.990Z,41.40
2023-05-01T08:35:35.561Z,42.04
2023-05-01T08:38:02.069Z,41.37
2023-05-01T08:40:31.405Z,40.68
2023-05-01T08:43:00.008Z,41.69
2023-05-01T08:45:27.795Z,42.56
2023-05-01T08:47:55.092Z,42.25
2023-05-01T08:50:22.823Z,41.43
2023-05-01T08:52:51.324Z,42.26
2023-05-01T08:55:19.445Z,40.60
2023-05-01T08:57:49.138Z,39.97
2023-05-01T09:00:19.623Z,40.38
2023-05-01T09:02:47.127Z,41.17
2023-05-01T09:05:14.990Z,41.31
2023-05-01T09:07:42.464Z,39.70
2023-05-01T09:10:09.591Z,40.48
2023-05-01T09:12:36.266Z,40.86
2023-05-01T09:15:03.728Z,40.37
2023-05-01T09:17:31.987Z,39.64
2023-05-01T09:19:58.691Z,38.49
2023-05-01T09:22:25.346Z,39.21
2023-05-01T09:24:51.757Z,39.76
2023-05-01T09:27:18.202Z,39.83
2023-05-01T09:29:46.054Z,40.32
2023-05-01T09:32:25.255Z,39.44
2023-05-01T09:34:52.572Z,39.10
2023-05-01T09:37:25.641Z,37.45
2023-05-01T09:40:01.041Z,38.04
2023-05-01T09:42:27.431Z,38.89
2023-05-01T09:44:54.359Z,39.10
2023-05-01T09:47:22.891Z,38.43
2023-05-01T09:49:49.895Z,36.35
2023-05-01T09:52:16.845Z,36.79
2023-05-01T09:54:43.385Z,37.19
2023-05-01T09:57:09.994Z,38.01
2023-05-01T09:59:36.434Z,38.79
2023-05-01T10:02:02.857Z,35.80
2023-05-01T10:04:29.880Z,35.69
2023-05-01T10:06:56.356Z,36.89
2023-05-01T10:09:29.665Z,35.06
2023-05-01T10:11:57.739Z,37.32
2023-05-01T10:14:25.692Z,37.04
2023-05-01T10:16:53.233Z,37.08
2023-05-01T10:19:20.131Z,37.67
2023-05-01T10:21:46.801Z,37.63
2023-05-01T10:24:15.279Z,37.51
2023-05-01T10:26:42.398Z,37.15
2023-05-01T10:29:09.113Z,36.15
2023-05-01T10:31:35.878Z,36.19
2023-05-01T10:34:02.740Z,37.06
2023-05-01T10:36:54.799Z,35.31
2023-05-01T10:39:32.290Z,35.18
2023-05-01T10:41:58.686Z,35.19
2023-05-01T10:44:26.353Z,35.12
2023-05-01T10:46:53.087Z,35.61
2023-05-01T10:49:19.613Z,36.62
2023-05-01T10:51:58.306Z,37.36
2023-05-01T10:54:28.934Z,37.54
2023-05-01T10:56:56.709Z,36.26
2023-05-01T10:59:23.386Z,37.11
2023-05-01T11:01:51.961Z,36.87
2023-05-01T11:04:24.849Z,36.37
2023-05-01T11:07:08.471Z,35.76
2023-05-01T11:09:44.130Z,37.12
2023-05-01T11:12:11.584Z,37.82
2023-05-01T11:15:03.805Z,36.78
2023-05-01T11:17:42.658Z,36.67
2023-05-01T11:20:10.143Z,36.76
2023-05-01T11:22:37.191Z,36.42
2023-05-01T11:25:04.589Z,36.52
2023-05-01T11:27:31.362Z,36.73
2023-05-01T11:30:00.911Z,37.25
2023-05-01T11:32:28.062Z,36.88
2023-05-01T11:34:54.801Z,36.21
2023-05-01T11:37:39.006Z,35.35
2023-05-01T11:40:06.278Z,34.71
2023-05-01T11:42:32.700Z,36.90
2023-05-01T11:45:06.279Z,37.13
2023-05-01T11:47:32.774Z,36.99
2023-05-01T11:49:59.975Z,34.97
2023-05-01T11:52:26.312Z,34.90
2023-05-01T11:54:52.683Z,33.98
2023-05-01T11:57:20.193Z,34.88
2023-05-01T11:59:47.429Z,34.90
2023-05-01T12:02:18.218Z,34.56
2023-05-01T12:04:44.651Z,33.63
2023-05-01T12:07:20.046Z,33.57
2023-05-01T12:09:46.698Z,35.14
2023-05-01T12:12:13.234Z,34.42
2023-05-01T12:14:40.252Z,33.84
2023-05-01T12:17:07.189Z,35.23
2023-05-01T12:19:34.542Z,34.69
2023-05-01T12:22:07.477Z,33.95
2023-05-01T12:24:34.010Z,34.36
2023-05-01T12:27:01.531Z,33.50
2023-05-01T12:29:39.356Z,33.40
2023-05-01T12:32:05.811Z,32.04
2023-05-01T12:34:33.608Z,32.24
2023-05-01T12:36:59.950Z,32.38
2023-05-01T12:39:26.926Z,32.13
2023-05-01T12:41:54.655Z,33.55
2023-05-01T12:44:25.284Z,33.84
2023-05-01T12:47:02.010Z,31.85
2023-05-01T12:49:29.680Z,32.16
2023-05-01T12:51:56.550Z,31.28
2023-05-01T12:54:23.746Z,30.99
2023-05-01T12:56:50.564Z,32.44
2023-05-01T12:59:24.141Z,33.22
2023-05-01T13:02:16.788Z,33.25
2023-05-01T13:04:43.683Z,31.13
2023-05-01T13:07:17.770Z,30.17
2023-05-01T13:09:59.018Z,31.95
2023-05-01T13:12:26.730Z,32.47
2023-05-01T13:14:53.561Z,32.37
2023-05-01T13:17:27.542Z,32.01
2023-05-01T13:19:58.548Z,32.04
2023-05-01T13:22:29.129Z,32.31
2023-05-01T13:24:55.707Z,31.43
2023-05-01T13:27:22.877Z,32.74
2023-05-01T13:29:55.897Z,31.04
2023-05-01T13:32:23.246Z,32.64
2023-05-01T13:34:49.734Z,32.12
2023-05-01T13:37:16.586Z,32.74
2023-05-01T13:39:43.481Z,31.08
2023-05-01T13:42:13.373Z,30.53
2023-05-01T13:44:51.360Z,30.70
2023-05-01T13:47:18.230Z,31.44
2023-05-01T13:49:45.516Z,31.12
2023-05-01T13:52:19.337Z,30.43
2023-05-01T13:54:46.394Z,31.73
2023-05-01T13:57:12.807Z,32.53
2023-05-01T13:59:40.542Z,30.96
2023-05-01T14:02:17.961Z,31.96
2023-05-01T14:04:44.423Z,32.10
2023-05-01T14:07:11.587Z,30.95
2023-05-01T14:09:39.751Z,31.01
2023-05-01T14:12:06.099Z,31.80
2023-05-01T14:14:32.796Z,31.48
2023-05-01T14:16:59.318Z,31.19
2023-05-01T14:19:25.688Z,31.71
2023-05-01T14:21:52.019Z,32.12
2023-05-01T14:24:18.390Z,32.90
2023-05-01T14:26:45.615Z,33.20
2023-05-01T14:29:30.132Z,32.60
2023-05-01T14:32:03.744Z,30.83
2023-05-01T14:34:30.155Z,31.38
2023-05-01T14:36:56.672Z,31.37
2023-05-01T14:39:23.133Z,30.90
2023-05-01T14:41:49.463Z,31.66
2023-05-01T14:44:17.900Z,31.40
2023-05-01T14:46:51.169Z,30.99
2023-05-01T14:49:19.501Z,31.02
2023-05-01T14:51:45.924Z,31.42
2023-05-01T14:54:12.755Z,31.13
2023-05-01T14:56:39.282Z,31.99
2023-05-01T14:59:05.690Z,32.02
2023-05-01T15:01:32.357Z,31.95
2023-05-01T15:04:00.408Z,32.20
2023-05-01T15:06:28.620Z,31.60
2023-05-01T15:08:55.000Z,32.83
2023-05-01T15:11:21.627Z,33.38
2023-05-01T15:13:50.414Z,34.04
2023-05-01T15:16:16.868Z,34.13
2023-05-01T15:18:43.259Z,33.28
2023-05-01T15:21:09.603Z,33.33
2023-05-01T15:23:37.143Z,33.58
2023-05-01T15:26:03.947Z,34.11
2023-05-01T15:28:30.423Z,33.67
2023-05-01T15:30:56.845Z,33.72
2023-05-01T15:33:23.318Z,33.76
2023-05-01T15:35:52.596Z,34.20
2023-05-01T15:38:20.498Z,35.01
2023-05-01T15:40:46.858Z,35.53
2023-05-01T15:43:13.214Z,35.76
2023-05-01T15:45:43.248Z,34.82
2023-05-01T15:48:10.211Z,35.55
2023-05-01T15:50:36.631Z,34.96
2023-05-01T15:53:02.965Z,35.14
2023-05-01T15:55:29.345Z,35.39
2023-05-01T15:57:55.782Z,35.22
2023-05-01T16:00:22.203Z,34.99
2023-05-01T16:02:48.675Z,35.04
2023-05-01T16:05:18.530Z,36.06
2023-05-01T16:07:45.182Z,35.38
2023-05-01T16:10:12.141Z,35.83
2023-05-01T16:12:38.473Z,36.20
2023-05-01T16:15:05.301Z,36.90
2023-05-01T16:17:32.969Z,36.29
2023-05-01T16:20:00.330Z,36.99
2023-05-01T16:22:27.046Z,37.02
2023-05-01T16:24:53.375Z,37.33
2023-05-01T16:27:19.811Z,37.64
2023-05-01T16:29:46.175Z,38.39
2023-05-01T16:32:13.608Z,39.09
2023-05-01T16:34:40.366Z,39.61
2023-05-01T16:37:07.069Z,39.38
2023-05-01T16:39:36.151Z,39.26
2023-05-01T16:42:03.222Z,37.32
2023-05-01T16:44:30.213Z,37.42
2023-05-01T16:46:58.575Z,38.00
2023-05-01T16:49:27.943Z,38.58
2023-05-01T16:51:58.654Z,38.34
2023-05-01T16:54:26.946Z,38.61
2023-05-01T16:56:53.432Z,38.77
2023-05-01T16:59:19.785Z,38.42
2023-05-01T17:01:46.258Z,38.70
2023-05-01T17:04:13.178Z,38.15
2023-05-01T17:06:39.542Z,38.59
2023-05-01T17:09:06.438Z,38.34
2023-05-01T17:11:32.775Z,38.38
2023-05-01T17:13:59.153Z,38.62
2023-05-01T17:16:25.497Z,37.79
2023-05-01T17:18:51.932Z,38.27
2023-05-01T17:21:18.713Z,38.46
2023-05-01T17:23:45.343Z,39.29
2023-05-01T17:26:13.468Z,39.67
2023-05-01T17:28:40.056Z,40.65
2023-05-01T17:31:06.376Z,41.31
2023-05-01T17:33:33.029Z,41.67
2023-05-01T17:36:00.677Z,41.74
2023-05-01T17:38:27.169Z,42.00
2023-05-01T17:40:53.625Z,42.03
2023-05-01T17:43:20.805Z,42.31
2023-05-01T17:45:47.934Z,42.41
2023-05-01T17:48:14.480Z,42.59
2023-05-01T17:50:41.358Z,42.63
2023-05-01T17:53:07.762Z,42.92
2023-05-01T17:55:35.986Z,43.27
2023-05-01T17:58:02.344Z,43.53
2023-05-01T18:00:28.880Z,43.76
2023-05-01T18:02:55.468Z,43.93
2023-05-01T18:05:22.687Z,44.25
2023-05-01T18:07:49.027Z,44.26
2023-05-01T18:10:16.153Z,44.53
2023-05-01T18:12:44.559Z,44.71
2023-05-01T18:15:11.492Z,45.02
2023-05-01T18:17:37.855Z,45.04
2023-05-01T18:20:04.380Z,45.35
2023-05-01T18:22:30.765Z,45.33
2023-05-01T18:24:57.391Z,45.54
2023-05-01T18:27:23.810Z,45.61
2023-05-01T18:29:51.646Z,45.90
2023-05-01T18:32:18.000Z,45.91
2023-05-01T18:34:45.447Z,46.04
2023-05-01T18:37:12.987Z,46.68
2023-05-01T18:39:39.312Z,46.76
2023-05-01T18:42:05.817Z,46.96
2023-05-01T18:44:32.157Z,47.25
2023-05-01T18:46:58.613Z,47.56
2023-05-01T18:49:25.152Z,47.99
2023-05-01T18:51:51.616Z,48.46
2023-05-01T18:54:18.041Z,48.51
2023-05-01T18:56:44.464Z,48.90
2023-05-01T18:59:10.803Z,48.96
2023-05-01T19:01:37.823Z,49.19
2023-05-01T19:04:04.379Z,49.62
2023-05-01T19:06:31.345Z,50.02
2023-05-01T19:08:57.875Z,50.16
2023-05-01T19:11:26.289Z,50.50
2023-05-01T19:13:52.719Z,50.40
2023-05-01T19:16:19.107Z,50.33
2023-05-01T19:18:47.789Z,50.41
2023-05-01T19:21:15.352Z,50.59
2023-05-01T19:23:43.214Z,50.69
2023-05-01T19:26:09.610Z,50.88
2023-05-01T19:28:37.205Z,51.25
2023-05-01T19:31:04.855Z,52.00
2023-05-01T19:33:31.193Z,52.40
2023-05-01T19:35:57.541Z,52.57
2023-05-01T19:38:24.017Z,52.83
2023-05-01T19:40:50.366Z,53.14
2023-05-01T19:43:17.095Z,53.47
2023-05-01T19:45:43.845Z,53.75
2023-05-01T19:48:10.373Z,53.76
2023-05-01T19:50:36.786Z,54.15
2023-05-01T19:53:05.217Z,54.57
2023-05-01T19:55:32.063Z,54.67
2023-05-01T19:57:58.420Z,54.67
2023-05-01T20:00:24.807Z,55.01
2023-05-01T20:02:51.469Z,55.19
2023-05-01T20:05:17.994Z,55.07
2023-05-01T20:07:44.578Z,55.35
2023-05-01T20:10:10.919Z,55.98
2023-05-01T20:16:05.137Z,56.06
2023-05-01T20:18:32.034Z,56.16
2023-05-01T20:20:58.411Z,56.44
2023-05-01T20:23:24.816Z,57.75
2023-05-01T20:25:55.016Z,59.87
2023-05-01T20:28:21.345Z,62.68
2023-05-01T20:30:48.706Z,62.76
2023-05-01T20:33:16.789Z,63.07
2023-05-01T20:35:43.426Z,64.09
2023-05-01T20:38:09.764Z,64.78
2023-05-01T20:40:36.458Z,66.21
2023-05-01T20:43:02.937Z,68.40
2023-05-01T20:45:29.490Z,69.76
2023-05-01T20:47:56.170Z,68.80
2023-05-01T20:50:22.689Z,69.13
2023-05-01T20:52:49.198Z,69.24
2023-05-01T20:55:15.563Z,69.75
2023-05-01T20:57:41.911Z,69.95
2023-05-01T21:00:08.709Z,70.42
2023-05-01T21:02:40.834Z,70.54
2023-05-01T21:05:09.959Z,71.36
2023-05-01T21:07:37.449Z,71.41
2023-05-01T21:10:07.581Z,71.58
2023-05-01T21:12:34.002Z,72.14
2023-05-01T21:15:00.572Z,72.41
2023-05-01T21:17:27.109Z,76.47
2023-05-01T21:19:53.901Z,76.13
2023-05-01T21:22:21.117Z,74.94
2023-05-01T21:24:54.298Z,73.87
2023-05-01T21:27:21.048Z,71.44
2023-05-01T21:29:57.829Z,68.90
2023-05-01T21:32:32.554Z,67.07
2023-05-01T21:35:03.634Z,66.79
2023-05-01T21:37:30.060Z,66.48
2023-05-01T21:40:00.588Z,66.81
2023-05-01T21:42:29.663Z,67.29
2023-05-01T21:44:58.150Z,66.85
2023-05-01T21:47:25.785Z,67.61
2023-05-01T21:49:58.629Z,68.32
2023-05-01T21:52:25.259Z,69.22
2023-05-01T21:54:51.594Z,70.11
2023-05-01T21:57:18.018Z,70.48
2023-05-01T21:59:45.083Z,71.21
2023-05-01T22:02:13.215Z,71.55
2023-05-01T22:04:39.737Z,72.26
2023-05-01T22:07:06.236Z,72.38
2023-05-01T22:09:32.670Z,73.00
2023-05-01T22:11:59.090Z,73.34
2023-05-01T22:14:33.556Z,73.42
2023-05-01T22:17:10.396Z,74.01
2023-05-01T22:19:37.900Z,74.25
2023-05-01T22:22:04.333Z,74.47
2023-05-01T22:24:31.562Z,75.16
2023-05-01T22:26:57.913Z,75.76
2023-05-01T22:29:24.274Z,74.89
2023-05-01T22:31:50.754Z,73.15
2023-05-01T22:34:17.156Z,71.89
2023-05-01T22:36:43.491Z,68.83
2023-05-01T22:39:09.814Z,69.44
2023-05-01T22:41:36.150Z,69.88
2023-05-01T22:44:02.646Z,70.55
2023-05-01T22:46:29.086Z,70.92
2023-05-01T22:48:55.501Z,71.75
2023-05-01T22:51:21.897Z,71.74
2023-05-01T22:53:48.247Z,71.00
2023-05-01T22:56:14.556Z,70.63
2023-05-01T22:58:40.929Z,69.67
2023-05-01T23:01:07.309Z,68.86
2023-05-01T23:03:35.193Z,69.22
2023-05-01T23:06:04.058Z,69.79
2023-05-01T23:08:30.396Z,69.59
2023-05-01T23:10:56.882Z,70.28
2023-05-01T23:13:23.637Z,70.25
2023-05-01T23:15:50.390Z,70.35
2023-05-01T23:18:24.650Z,70.93
2023-05-01T23:20:51.707Z,70.61
2023-05-01T23:23:19.948Z,70.03
2023-05-01T23:25:47.133Z,70.50
2023-05-01T23:28:19.259Z,70.87
2023-05-01T23:30:48.503Z,69.95
2023-05-01T23:33:17.514Z,69.97
2023-05-01T23:35:45.085Z,69.19
2023-05-01T23:38:13.705Z,69.72
2023-05-01T23:40:40.280Z,69.53
2023-05-01T23:43:06.637Z,69.59
2023-05-01T23:45:33.170Z,69.26
2023-05-01T23:47:59.661Z,69.64
2023-05-01T23:50:26.178Z,70.22
2023-05-01T23:52:52.516Z,70.40
2023-05-01T23:55:18.823Z,70.26
2023-05-01T23:57:45.421Z,70.10
